Shinkomaru No.18 — JD3625 — position and weather

sailwx.info

Track history (hours):
 
Tides and Currents Weather Stations Pressure Air Temp Water Temp Dewpoint Dewpoint Depression Visibility Wind Speed Wind Dir Waves Ship Positions

Shinkomaru No.18

Last reported at 2017-Dec-11 16:59 UTC. Time now 2017-Dec-14 10:19 UTC.
Position N 35°24' E 139°50'.

Length 82 m.

Type: Cargo ship. MMSI: 431005083.

Date/timePositionNaut miles runAvg speedWind from/ knotsBaromVisibWave heightAir tempDewpointWater temp
2017-Dec-11 16:59N 35°24' E 139°50'0 0.0
2017-Dec-11 16:29N 35°24' E 139°50'0 0.0
2017-Dec-11 16:00N 35°24' E 139°50'0 0.0
2017-Dec-11 15:30N 35°24' E 139°50'0 0.0
2017-Dec-11 15:00N 35°24' E 139°50'0 0.0
2017-Dec-11 14:30N 35°24' E 139°50'0 0.0
2017-Dec-11 14:00N 35°24' E 139°50'0 0.0
2017-Dec-11 13:30N 35°24' E 139°50'0 0.0
2017-Dec-11 12:59N 35°24' E 139°50'0 0.0
2017-Dec-11 12:27N 35°24' E 139°50'0 0.0
2017-Dec-11 12:00N 35°24' E 139°50'0 0.3
2017-Dec-11 11:30N 35°24' E 139°50'2 4.2
2017-Dec-11 11:00N 35°22' E 139°51'3 5.6
2017-Dec-11 10:31N 35°24' E 139°49'0 0.3
2017-Dec-11 09:58N 35°25' E 139°49'2 4.7
2017-Dec-11 09:30N 35°24' E 139°46'511.1
2017-Dec-11 09:01N 35°19' E 139°44'510.5
2017-Dec-11 08:31N 35°14' E 139°47'611.1
2017-Dec-11 08:01N 35°09' E 139°47'510.8
2017-Dec-11 07:31N 35°04' E 139°44'611.8
2017-Dec-11 07:01N 34°60' E 139°39'813.0
2017-Dec-11 06:24N 34°55' E 139°31'613.0
2017-Dec-11 05:55N 34°52' E 139°24'912.7
2017-Dec-11 05:14N 34°46' E 139°16'312.6
2017-Dec-11 05:00N 34°45' E 139°13'612.0
2017-Dec-11 04:30N 34°41' E 139°07'712.2
2017-Dec-11 03:56N 34°37' E 139°00'511.2
2017-Dec-11 03:30N 34°35' E 138°55'611.2
2017-Dec-11 02:55N 34°34' E 138°47'611.7
2017-Dec-11 02:25N 34°33' E 138°40'611.7
2017-Dec-11 01:55N 34°32' E 138°33'512.1
2017-Dec-11 01:30N 34°32' E 138°27'812.4
2017-Dec-11 00:53N 34°32' E 138°18'512.6
2017-Dec-11 00:27N 34°31' E 138°11'612.2
2017-Dec-10 23:59N 34°29' E 138°05'157 9.7
2017-Dec-10 07:47N 33°52' E 135°01'311.8
2017-Dec-10 07:29N 33°55' E 134°58'611.7
2017-Dec-10 07:00N 33°59' E 134°54'611.1
2017-Dec-10 06:30N 34°04' E 134°49'611.1
2017-Dec-10 06:00N 34°08' E 134°45'611.0
2017-Dec-10 05:30N 34°12' E 134°41'510.8
2017-Dec-10 05:00N 34°16' E 134°36'611.0
2017-Dec-10 04:30N 34°18' E 134°30'510.9
2017-Dec-10 04:00N 34°20' E 134°24'1110.2
2017-Dec-10 02:53N 34°25' E 134°11'17 0.3
2017-Dec-08 01:53N 34°19' E 134°31'712.7
2017-Dec-08 01:21N 34°16' E 134°38'911.9
2017-Dec-08 00:36N 34°11' E 134°46'111.6
2017-Dec-08 00:29N 34°11' E 134°48'511.4
2017-Dec-08 00:00N 34°13' E 134°54'611.9
2017-Dec-07 23:30N 34°14' E 135°01'510.8
2017-Dec-07 23:01N 34°14' E 135°08'0 0.2
2017-Dec-07 22:30N 34°14' E 135°08'0 0.0
2017-Dec-07 22:00N 34°14' E 135°08'0 0.0
2017-Dec-07 21:30N 34°14' E 135°08'0 0.0
2017-Dec-07 21:00N 34°14' E 135°08'0 0.0
2017-Dec-07 20:30N 34°14' E 135°08'0 0.0
2017-Dec-07 20:00N 34°14' E 135°08'0 0.0
2017-Dec-07 19:30N 34°14' E 135°08'0 0.0
2017-Dec-07 19:00N 34°14' E 135°08'0 0.0
2017-Dec-07 18:30N 34°14' E 135°08'0 0.0
2017-Dec-07 18:00N 34°14' E 135°08'0 0.0
2017-Dec-07 17:30N 34°14' E 135°08'0 0.0
2017-Dec-07 17:00N 34°14' E 135°08'0 0.0
2017-Dec-07 16:30N 34°14' E 135°08'0 0.0
2017-Dec-07 16:00N 34°14' E 135°08'0 0.0
2017-Dec-07 15:30N 34°14' E 135°08'0 0.0
2017-Dec-07 15:00N 34°14' E 135°08'0 0.0
2017-Dec-07 14:30N 34°14' E 135°08'0 0.0
2017-Dec-07 14:00N 34°14' E 135°08'0 0.0
2017-Dec-07 13:30N 34°14' E 135°08'0 0.0
2017-Dec-07 13:00N 34°14' E 135°08'0 0.0
2017-Dec-07 12:30N 34°14' E 135°08'0 0.0
2017-Dec-07 12:00N 34°14' E 135°08'0 0.0
2017-Dec-07 11:30N 34°14' E 135°08'0 0.0
2017-Dec-07 11:00N 34°14' E 135°08'0 0.0
2017-Dec-07 10:30N 34°14' E 135°08'0 0.0
2017-Dec-07 10:00N 34°14' E 135°08'0 0.0
2017-Dec-07 09:30N 34°14' E 135°08'0 0.0
2017-Dec-07 09:00N 34°14' E 135°08'0 0.0
2017-Dec-07 08:30N 34°14' E 135°08'0 0.0
2017-Dec-07 08:00N 34°14' E 135°08'0 0.0
2017-Dec-07 07:30N 34°14' E 135°08'0 0.0
2017-Dec-07 07:00N 34°14' E 135°08'0 0.0
2017-Dec-07 06:30N 34°14' E 135°08'0 0.0
2017-Dec-07 06:00N 34°14' E 135°08'0 0.0
2017-Dec-07 05:30N 34°14' E 135°08'0 0.0
2017-Dec-07 05:00N 34°14' E 135°08'0 0.0
2017-Dec-07 04:30N 34°14' E 135°08'0 0.0
2017-Dec-07 04:00N 34°14' E 135°08'0 0.0
2017-Dec-07 03:30N 34°14' E 135°08'0 0.0
2017-Dec-07 03:00N 34°14' E 135°08'0 0.0
2017-Dec-07 02:30N 34°14' E 135°08'0 0.0
2017-Dec-07 02:00N 34°14' E 135°08'0 0.0
2017-Dec-07 01:30N 34°14' E 135°08'0 0.0
2017-Dec-07 01:00N 34°14' E 135°08'0 0.0
2017-Dec-07 00:30N 34°14' E 135°08'0 0.0
2017-Dec-07 00:00N 34°14' E 135°08'0 0.0
2017-Dec-06 23:30N 34°14' E 135°08'0 0.0
2017-Dec-06 23:00N 34°14' E 135°08'0 0.0
2017-Dec-06 22:30N 34°14' E 135°08'0 0.0
2017-Dec-06 22:00N 34°14' E 135°08'0 0.0
2017-Dec-06 21:30N 34°14' E 135°08'0 0.0
2017-Dec-06 21:00N 34°14' E 135°08'  
2017-Dec-04 10:30N 35°03' E 136°53'0 0.0
2017-Dec-04 10:00N 35°03' E 136°53'0 0.0
2017-Dec-04 09:30N 35°03' E 136°53'0 0.0
2017-Dec-04 09:00N 35°03' E 136°53'0 0.0
2017-Dec-04 08:30N 35°03' E 136°53'0 0.0
2017-Dec-04 08:00N 35°03' E 136°53'0 0.0
2017-Dec-04 07:30N 35°03' E 136°53'0 0.0
2017-Dec-04 07:00N 35°03' E 136°53'0 0.0
2017-Dec-04 06:30N 35°03' E 136°53'0 0.0
2017-Dec-04 06:00N 35°03' E 136°53'0 0.0
2017-Dec-04 05:30N 35°03' E 136°53'0 0.0
2017-Dec-04 05:00N 35°03' E 136°53'0 0.0
2017-Dec-04 04:30N 35°03' E 136°53'0 0.0
2017-Dec-04 04:00N 35°03' E 136°53'0 0.0
2017-Dec-04 03:30N 35°03' E 136°53'0 0.0
2017-Dec-04 03:00N 35°03' E 136°53'0 0.0
2017-Dec-04 02:30N 35°03' E 136°53'0 0.0
2017-Dec-04 02:00N 35°03' E 136°53'0 0.0
2017-Dec-04 01:30N 35°03' E 136°53'0 0.0
2017-Dec-04 01:00N 35°03' E 136°53'0 0.0
2017-Dec-04 00:30N 35°03' E 136°53'0 0.0
2017-Dec-04 00:00N 35°03' E 136°53'0 0.0
2017-Dec-03 23:30N 35°03' E 136°53'0 0.0
2017-Dec-03 23:00N 35°03' E 136°53'0 0.1
2017-Dec-03 22:30N 35°03' E 136°52'3 6.2
2017-Dec-03 22:00N 35°00' E 136°50'3 7.0
2017-Dec-03 21:30N 34°58' E 136°47'0 0.1
2017-Dec-03 21:00N 34°58' E 136°47'0 0.0
2017-Dec-03 20:30N 34°58' E 136°47'0 0.0
2017-Dec-03 20:00N 34°58' E 136°47'0 0.0
2017-Dec-03 19:30N 34°58' E 136°47'0 0.0
2017-Dec-03 19:00N 34°58' E 136°47'0 0.0
2017-Dec-03 18:30N 34°58' E 136°47'0 0.1
2017-Dec-03 18:00N 34°58' E 136°47'0 0.0
2017-Dec-03 17:30N 34°58' E 136°47'0 0.0
2017-Dec-03 17:00N 34°58' E 136°47'0 0.0
2017-Dec-03 16:30N 34°58' E 136°47'0 0.0
2017-Dec-03 16:00N 34°58' E 136°47'0 0.0
2017-Dec-03 15:30N 34°58' E 136°47'0 0.0
2017-Dec-03 15:00N 34°58' E 136°47'0 0.0
2017-Dec-03 14:30N 34°58' E 136°47'0 0.0
2017-Dec-03 14:00N 34°58' E 136°47'0 0.0
2017-Dec-03 13:30N 34°58' E 136°47'0 0.0
2017-Dec-03 13:00N 34°58' E 136°47'0 0.1
2017-Dec-03 12:30N 34°58' E 136°47'0 0.0
2017-Dec-03 12:00N 34°58' E 136°47'0 0.0
2017-Dec-03 11:30N 34°58' E 136°47'0 0.0
2017-Dec-03 11:00N 34°58' E 136°47'0 0.0
2017-Dec-03 10:30N 34°58' E 136°47'0 0.0
2017-Dec-03 10:00N 34°58' E 136°47'0 0.0
2017-Dec-03 09:30N 34°58' E 136°47'0 0.0
2017-Dec-03 09:00N 34°58' E 136°47'0 0.0
2017-Dec-03 08:30N 34°58' E 136°47'0 0.0
2017-Dec-03 08:00N 34°58' E 136°47'0 0.4
2017-Dec-03 07:30N 34°57' E 136°47'611.4
2017-Dec-03 07:00N 34°52' E 136°46'611.8
2017-Dec-03 06:30N 34°46' E 136°48'812.1
2017-Dec-03 05:52N 34°40' E 136°53'1611.5
2017-Dec-03 04:27N 34°33' E 137°11'5311.3
2017-Dec-02 23:47N 34°32' E 138°15'611.0
2017-Dec-02 23:13N 34°33' E 138°23'311.3
2017-Dec-02 22:58N 34°33' E 138°26'911.0
2017-Dec-02 22:08N 34°34' E 138°38'1411.6
2017-Dec-02 20:55N 34°35' E 138°54'713.0
2017-Dec-02 20:24N 34°39' E 139°01'512.4
2017-Dec-02 20:00N 34°42' E 139°06'712.3
2017-Dec-02 19:27N 34°47' E 139°12'711.7
2017-Dec-02 18:50N 34°51' E 139°19'810.1
2017-Dec-02 18:00N 34°56' E 139°27'510.3
2017-Dec-02 17:30N 34°60' E 139°32'511.0
2017-Dec-02 17:00N 35°03' E 139°37'713.1
2017-Dec-02 16:30N 35°08' E 139°43'612.2
2017-Dec-02 16:00N 35°13' E 139°46'510.9
2017-Dec-02 15:30N 35°18' E 139°44'510.9
2017-Dec-02 15:00N 35°24' E 139°43'5 9.4
2017-Dec-02 14:31N 35°24' E 139°48'4 8.3
2017-Dec-02 14:00N 35°22' E 139°52'0 0.0
2017-Dec-02 13:30N 35°22' E 139°52'0 0.0
2017-Dec-02 13:00N 35°22' E 139°52'0 0.0
2017-Dec-02 12:30N 35°22' E 139°52'0 0.0
2017-Dec-02 12:00N 35°22' E 139°52'0 0.0
2017-Dec-02 11:30N 35°22' E 139°52'0 0.0
2017-Dec-02 11:00N 35°22' E 139°52'0 0.0
2017-Dec-02 10:30N 35°22' E 139°52'0 0.0
2017-Dec-02 10:00N 35°22' E 139°52'0 0.0
2017-Dec-02 09:30N 35°22' E 139°52'0 0.7
2017-Dec-02 09:00N 35°22' E 139°52'3 5.7
2017-Dec-02 08:30N 35°24' E 139°49'0 0.2
2017-Dec-02 08:00N 35°24' E 139°49'0 0.0
2017-Dec-02 07:30N 35°24' E 139°49'0 0.0
2017-Dec-02 07:00N 35°24' E 139°49'0 0.0
2017-Dec-02 06:30N 35°24' E 139°49'0 0.0
2017-Dec-02 06:00N 35°24' E 139°49'0 0.0
2017-Dec-02 05:30N 35°24' E 139°49'0 0.0
2017-Dec-02 05:00N 35°24' E 139°49'0 0.0
2017-Dec-02 04:30N 35°24' E 139°49'0 0.0
2017-Dec-02 04:00N 35°24' E 139°49'0 0.0
2017-Dec-02 03:30N 35°24' E 139°49'2 4.9
2017-Dec-02 03:00N 35°23' E 139°46'510.6
2017-Dec-02 02:30N 35°18' E 139°45'510.9
2017-Dec-02 02:01N 35°13' E 139°47'510.9
2017-Dec-02 01:30N 35°08' E 139°46'510.6
2017-Dec-02 01:00N 35°03' E 139°44'510.3
2017-Dec-02 00:30N 34°59' E 139°39'711.1
2017-Dec-01 23:52N 34°56' E 139°32'411.6
2017-Dec-01 23:30N 34°54' E 139°27'611.2
2017-Dec-01 22:59N 34°50' E 139°21'611.7
2017-Dec-01 22:30N 34°47' E 139°16'612.0
2017-Dec-01 21:58N 34°43' E 139°10'511.5
2017-Dec-01 21:30N 34°40' E 139°04'610.8
2017-Dec-01 20:58N 34°37' E 138°59'510.6
2017-Dec-01 20:27N 34°35' E 138°53'611.1
2017-Dec-01 19:53N 34°34' E 138°45'512.0
2017-Dec-01 19:27N 34°33' E 138°39'612.4
2017-Dec-01 18:58N 34°33' E 138°31'712.2
2017-Dec-01 18:23N 34°32' E 138°23'512.2
2017-Dec-01 17:58N 34°32' E 138°17'811.9
2017-Dec-01 17:18N 34°30' E 138°07'  
Track history (hours):
 
Tides and Currents Weather Stations Pressure Air Temp Water Temp Dewpoint Dewpoint Depression Visibility Wind Speed Wind Dir Waves Ship Positions

Shinkomaru No.18

Last reported at 2017-Dec-11 16:59 UTC. Time now 2017-Dec-14 10:19 UTC.
Position N 35°24' E 139°50'.

Length 82 m.

Type: Cargo ship. MMSI: 431005083.

Date/timePositionNaut miles runAvg speedWind from/ knotsBaromVisibWave heightAir tempDewpointWater temp
2017-Dec-11 16:59N 35°24' E 139°50'0 0.0
2017-Dec-11 16:29N 35°24' E 139°50'0 0.0
2017-Dec-11 16:00N 35°24' E 139°50'0 0.0
2017-Dec-11 15:30N 35°24' E 139°50'0 0.0
2017-Dec-11 15:00N 35°24' E 139°50'0 0.0
2017-Dec-11 14:30N 35°24' E 139°50'0 0.0
2017-Dec-11 14:00N 35°24' E 139°50'0 0.0
2017-Dec-11 13:30N 35°24' E 139°50'0 0.0
2017-Dec-11 12:59N 35°24' E 139°50'0 0.0
2017-Dec-11 12:27N 35°24' E 139°50'0 0.0
2017-Dec-11 12:00N 35°24' E 139°50'0 0.3
2017-Dec-11 11:30N 35°24' E 139°50'2 4.2
2017-Dec-11 11:00N 35°22' E 139°51'3 5.6
2017-Dec-11 10:31N 35°24' E 139°49'0 0.3
2017-Dec-11 09:58N 35°25' E 139°49'2 4.7
2017-Dec-11 09:30N 35°24' E 139°46'511.1
2017-Dec-11 09:01N 35°19' E 139°44'510.5
2017-Dec-11 08:31N 35°14' E 139°47'611.1
2017-Dec-11 08:01N 35°09' E 139°47'510.8
2017-Dec-11 07:31N 35°04' E 139°44'611.8
2017-Dec-11 07:01N 34°60' E 139°39'813.0
2017-Dec-11 06:24N 34°55' E 139°31'613.0
2017-Dec-11 05:55N 34°52' E 139°24'912.7
2017-Dec-11 05:14N 34°46' E 139°16'312.6
2017-Dec-11 05:00N 34°45' E 139°13'612.0
2017-Dec-11 04:30N 34°41' E 139°07'712.2
2017-Dec-11 03:56N 34°37' E 139°00'511.2
2017-Dec-11 03:30N 34°35' E 138°55'611.2
2017-Dec-11 02:55N 34°34' E 138°47'611.7
2017-Dec-11 02:25N 34°33' E 138°40'611.7
2017-Dec-11 01:55N 34°32' E 138°33'512.1
2017-Dec-11 01:30N 34°32' E 138°27'812.4
2017-Dec-11 00:53N 34°32' E 138°18'512.6
2017-Dec-11 00:27N 34°31' E 138°11'612.2
2017-Dec-10 23:59N 34°29' E 138°05'157 9.7
2017-Dec-10 07:47N 33°52' E 135°01'311.8
2017-Dec-10 07:29N 33°55' E 134°58'611.7
2017-Dec-10 07:00N 33°59' E 134°54'611.1
2017-Dec-10 06:30N 34°04' E 134°49'611.1
2017-Dec-10 06:00N 34°08' E 134°45'611.0
2017-Dec-10 05:30N 34°12' E 134°41'510.8
2017-Dec-10 05:00N 34°16' E 134°36'611.0
2017-Dec-10 04:30N 34°18' E 134°30'510.9
2017-Dec-10 04:00N 34°20' E 134°24'1110.2
2017-Dec-10 02:53N 34°25' E 134°11'17 0.3
2017-Dec-08 01:53N 34°19' E 134°31'712.7
2017-Dec-08 01:21N 34°16' E 134°38'911.9
2017-Dec-08 00:36N 34°11' E 134°46'111.6
2017-Dec-08 00:29N 34°11' E 134°48'511.4
2017-Dec-08 00:00N 34°13' E 134°54'611.9
2017-Dec-07 23:30N 34°14' E 135°01'510.8
2017-Dec-07 23:01N 34°14' E 135°08'0 0.2
2017-Dec-07 22:30N 34°14' E 135°08'0 0.0
2017-Dec-07 22:00N 34°14' E 135°08'0 0.0
2017-Dec-07 21:30N 34°14' E 135°08'0 0.0
2017-Dec-07 21:00N 34°14' E 135°08'0 0.0
2017-Dec-07 20:30N 34°14' E 135°08'0 0.0
2017-Dec-07 20:00N 34°14' E 135°08'0 0.0
2017-Dec-07 19:30N 34°14' E 135°08'0 0.0
2017-Dec-07 19:00N 34°14' E 135°08'0 0.0
2017-Dec-07 18:30N 34°14' E 135°08'0 0.0
2017-Dec-07 18:00N 34°14' E 135°08'0 0.0
2017-Dec-07 17:30N 34°14' E 135°08'0 0.0
2017-Dec-07 17:00N 34°14' E 135°08'0 0.0
2017-Dec-07 16:30N 34°14' E 135°08'0 0.0
2017-Dec-07 16:00N 34°14' E 135°08'0 0.0
2017-Dec-07 15:30N 34°14' E 135°08'0 0.0
2017-Dec-07 15:00N 34°14' E 135°08'0 0.0
2017-Dec-07 14:30N 34°14' E 135°08'0 0.0
2017-Dec-07 14:00N 34°14' E 135°08'0 0.0
2017-Dec-07 13:30N 34°14' E 135°08'0 0.0
2017-Dec-07 13:00N 34°14' E 135°08'0 0.0
2017-Dec-07 12:30N 34°14' E 135°08'0 0.0
2017-Dec-07 12:00N 34°14' E 135°08'0 0.0
2017-Dec-07 11:30N 34°14' E 135°08'0 0.0
2017-Dec-07 11:00N 34°14' E 135°08'0 0.0
2017-Dec-07 10:30N 34°14' E 135°08'0 0.0
2017-Dec-07 10:00N 34°14' E 135°08'0 0.0
2017-Dec-07 09:30N 34°14' E 135°08'0 0.0
2017-Dec-07 09:00N 34°14' E 135°08'0 0.0
2017-Dec-07 08:30N 34°14' E 135°08'0 0.0
2017-Dec-07 08:00N 34°14' E 135°08'0 0.0
2017-Dec-07 07:30N 34°14' E 135°08'0 0.0
2017-Dec-07 07:00N 34°14' E 135°08'0 0.0
2017-Dec-07 06:30N 34°14' E 135°08'0 0.0
2017-Dec-07 06:00N 34°14' E 135°08'0 0.0
2017-Dec-07 05:30N 34°14' E 135°08'0 0.0
2017-Dec-07 05:00N 34°14' E 135°08'0 0.0
2017-Dec-07 04:30N 34°14' E 135°08'0 0.0
2017-Dec-07 04:00N 34°14' E 135°08'0 0.0
2017-Dec-07 03:30N 34°14' E 135°08'0 0.0
2017-Dec-07 03:00N 34°14' E 135°08'0 0.0
2017-Dec-07 02:30N 34°14' E 135°08'0 0.0
2017-Dec-07 02:00N 34°14' E 135°08'0 0.0
2017-Dec-07 01:30N 34°14' E 135°08'0 0.0
2017-Dec-07 01:00N 34°14' E 135°08'0 0.0
2017-Dec-07 00:30N 34°14' E 135°08'0 0.0
2017-Dec-07 00:00N 34°14' E 135°08'0 0.0
2017-Dec-06 23:30N 34°14' E 135°08'0 0.0
2017-Dec-06 23:00N 34°14' E 135°08'0 0.0
2017-Dec-06 22:30N 34°14' E 135°08'0 0.0
2017-Dec-06 22:00N 34°14' E 135°08'0 0.0
2017-Dec-06 21:30N 34°14' E 135°08'0 0.0
2017-Dec-06 21:00N 34°14' E 135°08'  
2017-Dec-04 10:30N 35°03' E 136°53'0 0.0
2017-Dec-04 10:00N 35°03' E 136°53'0 0.0
2017-Dec-04 09:30N 35°03' E 136°53'0 0.0
2017-Dec-04 09:00N 35°03' E 136°53'0 0.0
2017-Dec-04 08:30N 35°03' E 136°53'0 0.0
2017-Dec-04 08:00N 35°03' E 136°53'0 0.0
2017-Dec-04 07:30N 35°03' E 136°53'0 0.0
2017-Dec-04 07:00N 35°03' E 136°53'0 0.0
2017-Dec-04 06:30N 35°03' E 136°53'0 0.0
2017-Dec-04 06:00N 35°03' E 136°53'0 0.0
2017-Dec-04 05:30N 35°03' E 136°53'0 0.0
2017-Dec-04 05:00N 35°03' E 136°53'0 0.0
2017-Dec-04 04:30N 35°03' E 136°53'0 0.0
2017-Dec-04 04:00N 35°03' E 136°53'0 0.0
2017-Dec-04 03:30N 35°03' E 136°53'0 0.0
2017-Dec-04 03:00N 35°03' E 136°53'0 0.0
2017-Dec-04 02:30N 35°03' E 136°53'0 0.0
2017-Dec-04 02:00N 35°03' E 136°53'0 0.0
2017-Dec-04 01:30N 35°03' E 136°53'0 0.0
2017-Dec-04 01:00N 35°03' E 136°53'0 0.0
2017-Dec-04 00:30N 35°03' E 136°53'0 0.0
2017-Dec-04 00:00N 35°03' E 136°53'0 0.0
2017-Dec-03 23:30N 35°03' E 136°53'0 0.0
2017-Dec-03 23:00N 35°03' E 136°53'0 0.1
2017-Dec-03 22:30N 35°03' E 136°52'3 6.2
2017-Dec-03 22:00N 35°00' E 136°50'3 7.0
2017-Dec-03 21:30N 34°58' E 136°47'0 0.1
2017-Dec-03 21:00N 34°58' E 136°47'0 0.0
2017-Dec-03 20:30N 34°58' E 136°47'0 0.0
2017-Dec-03 20:00N 34°58' E 136°47'0 0.0
2017-Dec-03 19:30N 34°58' E 136°47'0 0.0
2017-Dec-03 19:00N 34°58' E 136°47'0 0.0
2017-Dec-03 18:30N 34°58' E 136°47'0 0.1
2017-Dec-03 18:00N 34°58' E 136°47'0 0.0
2017-Dec-03 17:30N 34°58' E 136°47'0 0.0
2017-Dec-03 17:00N 34°58' E 136°47'0 0.0
2017-Dec-03 16:30N 34°58' E 136°47'0 0.0
2017-Dec-03 16:00N 34°58' E 136°47'0 0.0
2017-Dec-03 15:30N 34°58' E 136°47'0 0.0
2017-Dec-03 15:00N 34°58' E 136°47'0 0.0
2017-Dec-03 14:30N 34°58' E 136°47'0 0.0
2017-Dec-03 14:00N 34°58' E 136°47'0 0.0
2017-Dec-03 13:30N 34°58' E 136°47'0 0.0
2017-Dec-03 13:00N 34°58' E 136°47'0 0.1
2017-Dec-03 12:30N 34°58' E 136°47'0 0.0
2017-Dec-03 12:00N 34°58' E 136°47'0 0.0
2017-Dec-03 11:30N 34°58' E 136°47'0 0.0
2017-Dec-03 11:00N 34°58' E 136°47'0 0.0
2017-Dec-03 10:30N 34°58' E 136°47'0 0.0
2017-Dec-03 10:00N 34°58' E 136°47'0 0.0
2017-Dec-03 09:30N 34°58' E 136°47'0 0.0
2017-Dec-03 09:00N 34°58' E 136°47'0 0.0
2017-Dec-03 08:30N 34°58' E 136°47'0 0.0
2017-Dec-03 08:00N 34°58' E 136°47'0 0.4
2017-Dec-03 07:30N 34°57' E 136°47'611.4
2017-Dec-03 07:00N 34°52' E 136°46'611.8
2017-Dec-03 06:30N 34°46' E 136°48'812.1
2017-Dec-03 05:52N 34°40' E 136°53'1611.5
2017-Dec-03 04:27N 34°33' E 137°11'5311.3
2017-Dec-02 23:47N 34°32' E 138°15'611.0
2017-Dec-02 23:13N 34°33' E 138°23'311.3
2017-Dec-02 22:58N 34°33' E 138°26'911.0
2017-Dec-02 22:08N 34°34' E 138°38'1411.6
2017-Dec-02 20:55N 34°35' E 138°54'713.0
2017-Dec-02 20:24N 34°39' E 139°01'512.4
2017-Dec-02 20:00N 34°42' E 139°06'712.3
2017-Dec-02 19:27N 34°47' E 139°12'711.7
2017-Dec-02 18:50N 34°51' E 139°19'810.1
2017-Dec-02 18:00N 34°56' E 139°27'510.3
2017-Dec-02 17:30N 34°60' E 139°32'511.0
2017-Dec-02 17:00N 35°03' E 139°37'713.1
2017-Dec-02 16:30N 35°08' E 139°43'612.2
2017-Dec-02 16:00N 35°13' E 139°46'510.9
2017-Dec-02 15:30N 35°18' E 139°44'510.9
2017-Dec-02 15:00N 35°24' E 139°43'5 9.4
2017-Dec-02 14:31N 35°24' E 139°48'4 8.3
2017-Dec-02 14:00N 35°22' E 139°52'0 0.0
2017-Dec-02 13:30N 35°22' E 139°52'0 0.0
2017-Dec-02 13:00N 35°22' E 139°52'0 0.0
2017-Dec-02 12:30N 35°22' E 139°52'0 0.0
2017-Dec-02 12:00N 35°22' E 139°52'0 0.0
2017-Dec-02 11:30N 35°22' E 139°52'0 0.0
2017-Dec-02 11:00N 35°22' E 139°52'0 0.0
2017-Dec-02 10:30N 35°22' E 139°52'0 0.0
2017-Dec-02 10:00N 35°22' E 139°52'0 0.0
2017-Dec-02 09:30N 35°22' E 139°52'0 0.7
2017-Dec-02 09:00N 35°22' E 139°52'3 5.7
2017-Dec-02 08:30N 35°24' E 139°49'0 0.2
2017-Dec-02 08:00N 35°24' E 139°49'0 0.0
2017-Dec-02 07:30N 35°24' E 139°49'0 0.0
2017-Dec-02 07:00N 35°24' E 139°49'0 0.0
2017-Dec-02 06:30N 35°24' E 139°49'0 0.0
2017-Dec-02 06:00N 35°24' E 139°49'0 0.0
2017-Dec-02 05:30N 35°24' E 139°49'0 0.0
2017-Dec-02 05:00N 35°24' E 139°49'0 0.0
2017-Dec-02 04:30N 35°24' E 139°49'0 0.0
2017-Dec-02 04:00N 35°24' E 139°49'0 0.0
2017-Dec-02 03:30N 35°24' E 139°49'2 4.9
2017-Dec-02 03:00N 35°23' E 139°46'510.6
2017-Dec-02 02:30N 35°18' E 139°45'510.9
2017-Dec-02 02:01N 35°13' E 139°47'510.9
2017-Dec-02 01:30N 35°08' E 139°46'510.6
2017-Dec-02 01:00N 35°03' E 139°44'510.3
2017-Dec-02 00:30N 34°59' E 139°39'711.1
2017-Dec-01 23:52N 34°56' E 139°32'411.6
2017-Dec-01 23:30N 34°54' E 139°27'611.2
2017-Dec-01 22:59N 34°50' E 139°21'611.7
2017-Dec-01 22:30N 34°47' E 139°16'612.0
2017-Dec-01 21:58N 34°43' E 139°10'511.5
2017-Dec-01 21:30N 34°40' E 139°04'610.8
2017-Dec-01 20:58N 34°37' E 138°59'510.6
2017-Dec-01 20:27N 34°35' E 138°53'611.1
2017-Dec-01 19:53N 34°34' E 138°45'512.0
2017-Dec-01 19:27N 34°33' E 138°39'612.4
2017-Dec-01 18:58N 34°33' E 138°31'712.2
2017-Dec-01 18:23N 34°32' E 138°23'512.2
2017-Dec-01 17:58N 34°32' E 138°17'811.9
2017-Dec-01 17:18N 34°30' E 138°07'  

Dump ship's entire track history